Time;durP1;ratioP1;P1;durP2;ratioP2;P2;SDS_P1;SDS_P2;PMS_P1;PMS_P2;Temp;Humidity;BMP_temperature;BMP_pressure;BME280_temperature;BME280_humidity;BME280_pressure;Samples;Min_cycle;Max_cycle;Signal;HPM_P1;HPM_P2
2022/03/13 00:02:04;;;;;;;18.77;12.20;;;7.20;97.80;;;;;;5104155;28;20044;-64
2022/03/13 00:04:30;;;;;;;17.43;12.20;;;7.20;97.60;;;;;;5104182;28;20048;-64
2022/03/13 00:06:56;;;;;;;19.85;12.63;;;7.20;97.80;;;;;;5103741;28;20282;-64
2022/03/13 00:09:23;;;;;;;18.33;12.32;;;7.20;97.80;;;;;;5104050;28;20048;-64
2022/03/13 00:11:53;;;;;;;17.92;11.82;;;7.10;97.80;;;;;;5104510;28;20044;-64
2022/03/13 00:14:25;;;;;;;17.00;11.65;;;7.10;98.10;;;;;;5104222;28;20097;-64
2022/03/13 00:16:52;;;;;;;21.88;11.73;;;7.10;98.10;;;;;;5104004;28;20048;-64
2022/03/13 00:19:20;;;;;;;19.52;12.00;;;7.00;98.60;;;;;;5104177;28;20044;-64
2022/03/13 00:21:51;;;;;;;18.63;12.45;;;7.00;98.60;;;;;;5102041;28;20139;-64
2022/03/13 00:24:20;;;;;;;19.17;12.18;;;7.00;98.50;;;;;;5104207;28;20040;-64
2022/03/13 00:26:52;;;;;;;17.98;10.98;;;7.00;98.70;;;;;;5104051;28;20519;-64
2022/03/13 00:29:19;;;;;;;18.88;12.35;;;7.10;98.60;;;;;;5104053;28;20075;-64
2022/03/13 00:31:45;;;;;;;18.95;12.50;;;7.00;98.50;;;;;;5104109;28;20102;-64
2022/03/13 00:34:11;;;;;;;21.38;12.73;;;7.10;98.60;;;;;;5103766;28;20032;-65
2022/03/13 00:36:37;;;;;;;21.45;12.25;;;7.10;98.70;;;;;;5103494;28;20040;-64
2022/03/13 00:39:03;;;;;;;18.45;11.93;;;7.10;98.60;;;;;;5103905;28;20107;-65
2022/03/13 00:41:29;;;;;;;17.40;12.13;;;7.10;98.40;;;;;;5103837;28;20048;-65
2022/03/13 00:43:55;;;;;;;16.05;11.52;;;7.00;98.70;;;;;;5104023;28;20094;-64
2022/03/13 00:46:20;;;;;;;19.52;12.55;;;7.10;98.50;;;;;;5103688;28;20056;-65
2022/03/13 00:48:46;;;;;;;18.52;11.52;;;7.00;98.80;;;;;;5103841;28;20056;-65
2022/03/13 00:51:12;;;;;;;16.58;12.27;;;7.10;98.80;;;;;;5103316;28;20048;-64
2022/03/13 00:53:38;;;;;;;17.67;11.77;;;7.10;98.80;;;;;;5103586;28;20508;-64
2022/03/13 00:56:05;;;;;;;21.35;13.25;;;7.00;98.90;;;;;;5103770;28;20036;-64
2022/03/13 00:58:30;;;;;;;22.40;13.10;;;7.00;99.10;;;;;;5103936;28;20616;-64
2022/03/13 01:00:56;;;;;;;18.35;12.90;;;7.00;99.20;;;;;;5103639;28;20285;-64
2022/03/13 01:03:30;;;;;;;19.83;12.85;;;7.00;99.50;;;;;;5103988;28;20051;-64
2022/03/13 01:05:56;;;;;;;20.08;13.75;;;7.00;99.50;;;;;;5103142;28;20043;-64
2022/03/13 01:08:22;;;;;;;19.73;12.98;;;6.90;99.80;;;;;;5103617;28;20529;-65
2022/03/13 01:10:49;;;;;;;20.08;12.65;;;6.90;99.80;;;;;;5107182;28;20103;-64
2022/03/13 01:13:15;;;;;;;18.48;12.20;;;6.90;99.80;;;;;;5107275;28;20055;-64
2022/03/13 01:15:43;;;;;;;18.55;12.38;;;6.80;99.90;;;;;;5107342;28;20043;-65
2022/03/13 01:18:10;;;;;;;20.17;12.93;;;6.90;99.90;;;;;;5107350;28;20346;-64
2022/03/13 01:20:35;;;;;;;20.65;12.25;;;6.90;99.90;;;;;;5107003;28;20047;-64
2022/03/13 01:23:01;;;;;;;20.58;11.82;;;6.90;99.90;;;;;;5106089;28;20056;-65
2022/03/13 01:25:27;;;;;;;16.83;11.65;;;6.90;99.90;;;;;;5107011;28;20036;-64
2022/03/13 01:27:53;;;;;;;19.73;13.23;;;6.90;99.90;;;;;;5106905;28;20073;-65
2022/03/13 01:30:19;;;;;;;19.77;13.07;;;6.90;99.90;;;;;;5107085;28;20159;-65
2022/03/13 01:32:52;;;;;;;17.83;12.40;;;6.90;99.90;;;;;;5106719;28;20044;-65
2022/03/13 01:35:23;;;;;;;19.73;12.82;;;6.90;99.90;;;;;;5106875;28;20105;-65
2022/03/13 01:37:49;;;;;;;22.27;12.93;;;6.90;99.90;;;;;;5106278;28;20046;-64
2022/03/13 01:40:24;;;;;;;19.70;11.73;;;6.90;99.90;;;;;;5106553;28;20072;-65
2022/03/13 01:42:51;;;;;;;24.08;13.18;;;6.90;99.90;;;;;;5106507;28;20047;-64
2022/03/13 01:45:23;;;;;;;21.63;12.50;;;6.90;99.90;;;;;;5106488;28;20056;-65
2022/03/13 01:47:48;;;;;;;18.33;12.20;;;6.90;99.90;;;;;;5106503;28;20056;-65
2022/03/13 01:50:15;;;;;;;22.67;12.57;;;6.90;99.90;;;;;;5105274;28;20080;-64
2022/03/13 01:52:45;;;;;;;19.65;12.18;;;7.00;99.90;;;;;;5105802;28;20111;-64
2022/03/13 01:55:12;;;;;;;20.08;13.23;;;7.00;99.90;;;;;;5106288;28;20571;-64
2022/03/13 01:57:38;;;;;;;21.15;13.07;;;7.10;99.90;;;;;;5106792;28;20044;-65
2022/03/13 02:00:07;;;;;;;21.38;13.30;;;7.10;99.90;;;;;;5106339;28;20150;-64
2022/03/13 02:02:34;;;;;;;20.83;12.82;;;7.10;99.90;;;;;;5106155;28;20075;-64
2022/03/13 02:05:00;;;;;;;22.23;13.15;;;7.10;99.90;;;;;;5106450;28;20097;-64
2022/03/13 02:07:28;;;;;;;18.75;12.40;;;7.10;99.90;;;;;;5105743;28;20047;-64
2022/03/13 02:09:55;;;;;;;21.90;13.88;;;7.10;99.90;;;;;;5106174;28;20044;-64
2022/03/13 02:12:24;;;;;;;20.92;12.98;;;7.10;99.90;;;;;;5106556;28;20269;-64
2022/03/13 02:14:50;;;;;;;19.83;13.35;;;7.00;99.90;;;;;;5106068;28;20047;-64
2022/03/13 02:17:34;;;;;;;22.00;13.90;;;7.00;99.90;;;;;;5105978;28;20123;-64
2022/03/13 02:19:59;;;;;;;19.17;12.40;;;7.00;99.90;;;;;;5105800;28;20052;-64
2022/03/13 02:22:25;;;;;;;22.15;13.25;;;7.00;99.90;;;;;;5105347;28;20066;-65
2022/03/13 02:24:51;;;;;;;19.35;12.57;;;7.00;99.90;;;;;;5105771;28;20089;-64
2022/03/13 02:27:29;;;;;;;17.50;12.98;;;7.00;99.90;;;;;;5105670;28;20101;-64
2022/03/13 02:29:55;;;;;;;22.15;13.98;;;7.00;99.90;;;;;;5093270;28;20044;-64
2022/03/13 02:32:21;;;;;;;21.75;13.27;;;7.00;99.90;;;;;;5087188;28;20051;-65
2022/03/13 02:34:47;;;;;;;23.88;14.10;;;7.00;99.90;;;;;;5104490;28;20040;-63
2022/03/13 02:37:38;;;;;;;21.25;13.40;;;7.00;99.90;;;;;;5105055;28;20036;-64
2022/03/13 02:40:05;;;;;;;20.33;13.55;;;7.00;99.90;;;;;;5099011;28;20052;-64
2022/03/13 02:42:31;;;;;;;22.95;14.10;;;7.00;99.90;;;;;;5105492;28;20094;-64
2022/03/13 02:44:57;;;;;;;20.27;15.10;;;7.10;99.90;;;;;;5105647;28;20044;-64
2022/03/13 02:47:22;;;;;;;22.02;15.23;;;7.00;99.90;;;;;;5105139;28;20111;-64
2022/03/13 02:49:48;;;;;;;24.63;14.38;;;7.00;99.90;;;;;;5105439;28;20052;-64
2022/03/13 02:52:14;;;;;;;20.83;14.10;;;7.00;99.90;;;;;;5104773;28;20081;-64
2022/03/13 02:54:39;;;;;;;21.40;13.85;;;7.00;99.90;;;;;;5104140;28;20056;-64
2022/03/13 02:57:06;;;;;;;22.15;14.20;;;6.90;99.90;;;;;;5105254;28;20079;-64
2022/03/13 02:59:32;;;;;;;21.58;14.23;;;6.90;99.90;;;;;;5105239;28;20500;-64
2022/03/13 03:02:00;;;;;;;18.35;14.00;;;7.00;99.90;;;;;;5103766;28;20073;-64
2022/03/13 03:04:26;;;;;;;21.33;14.65;;;6.90;99.90;;;;;;5105145;28;20047;-65
2022/03/13 03:07:01;;;;;;;21.05;15.43;;;6.80;99.90;;;;;;5104649;28;20044;-64
2022/03/13 03:09:29;;;;;;;21.17;14.88;;;6.80;99.90;;;;;;5104835;28;20048;-64
2022/03/13 03:11:55;;;;;;;;;;;6.80;99.90;;;;;;5105471;28;20047;-64
2022/03/13 03:14:21;;;;;;;22.27;13.95;;;6.80;99.90;;;;;;5105045;28;19924;-64
2022/03/13 03:16:47;;;;;;;20.45;13.07;;;6.70;99.90;;;;;;5104939;28;20056;-64
2022/03/13 03:19:13;;;;;;;20.85;13.57;;;6.70;99.90;;;;;;5105285;28;20096;-64
2022/03/13 03:21:39;;;;;;;18.80;13.25;;;6.70;99.90;;;;;;5104069;28;20044;-64
2022/03/13 03:24:18;;;;;;;18.23;13.40;;;6.70;99.90;;;;;;5104628;28;20073;-64
2022/03/13 03:26:44;;;;;;;;;;;6.70;99.90;;;;;;5105140;28;20040;-64
2022/03/13 03:29:10;;;;;;;21.25;14.15;;;6.60;99.90;;;;;;5103492;28;20413;-64
2022/03/13 03:31:41;;;;;;;20.88;14.68;;;6.70;99.90;;;;;;5104026;28;20067;-64
2022/03/13 03:34:12;;;;;;;22.00;15.30;;;6.60;99.90;;;;;;5104778;28;20048;-64
2022/03/13 03:36:40;;;;;;;22.30;14.85;;;6.60;99.90;;;;;;5104050;28;20491;-64
2022/03/13 03:39:07;;;;;;;19.63;13.82;;;6.60;99.90;;;;;;5104405;28;20044;-64
2022/03/13 03:41:34;;;;;;;23.40;14.57;;;6.60;99.90;;;;;;5104604;28;20040;-64
2022/03/13 03:43:59;;;;;;;24.95;16.17;;;6.60;99.90;;;;;;5104490;28;20040;-64
2022/03/13 03:46:25;;;;;;;21.15;13.57;;;6.50;99.90;;;;;;5104301;28;20468;-64
2022/03/13 03:48:51;;;;;;;22.90;14.85;;;6.50;99.90;;;;;;5104578;28;20056;-64
2022/03/13 03:51:16;;;;;;;20.42;14.68;;;6.50;99.90;;;;;;5103828;28;20113;-64
2022/03/13 03:53:42;;;;;;;28.67;16.00;;;6.50;99.90;;;;;;5102887;28;20044;-64
2022/03/13 03:56:08;;;;;;;21.75;15.32;;;6.50;99.90;;;;;;5104431;28;20044;-65
2022/03/13 03:58:33;;;;;;;19.88;13.75;;;6.50;99.90;;;;;;5104418;28;20070;-65
2022/03/13 04:00:59;;;;;;;24.58;15.23;;;6.40;99.90;;;;;;5104488;28;20055;-64
2022/03/13 04:03:25;;;;;;;19.23;14.25;;;6.40;99.90;;;;;;5104192;28;20132;-64
2022/03/13 04:05:51;;;;;;;22.83;14.20;;;6.30;99.90;;;;;;5103840;28;20566;-64
2022/03/13 04:08:17;;;;;;;22.63;15.52;;;6.30;99.90;;;;;;5103995;28;20066;-65
2022/03/13 04:10:43;;;;;;;23.50;14.80;;;6.30;99.90;;;;;;5104445;28;20036;-64
2022/03/13 04:13:09;;;;;;;22.80;14.35;;;6.20;99.90;;;;;;5104452;28;20086;-64
2022/03/13 04:15:34;;;;;;;24.67;14.93;;;6.20;99.90;;;;;;5104231;28;20059;-64
2022/03/13 04:18:00;;;;;;;26.75;14.45;;;6.20;99.90;;;;;;5104009;28;20054;-65
2022/03/13 04:20:26;;;;;;;21.00;14.25;;;6.10;99.90;;;;;;5104118;28;20128;-64
2022/03/13 04:22:52;;;;;;;23.35;15.77;;;6.10;99.90;;;;;;5103557;28;20052;-65
2022/03/13 04:25:17;;;;;;;24.67;14.60;;;6.10;99.90;;;;;;5104213;28;20048;-65
2022/03/13 04:27:44;;;;;;;21.55;15.13;;;6.00;99.90;;;;;;5104075;28;20103;-64
2022/03/13 04:30:10;;;;;;;23.92;15.57;;;6.00;99.90;;;;;;5104170;28;20044;-64
2022/03/13 04:32:36;;;;;;;22.42;14.73;;;6.00;99.90;;;;;;5103831;28;20127;-64
2022/03/13 04:35:01;;;;;;;24.38;16.35;;;6.00;99.90;;;;;;5104263;28;20040;-65
2022/03/13 04:37:27;;;;;;;21.45;15.50;;;5.90;99.90;;;;;;5103715;28;20094;-64
2022/03/13 04:39:53;;;;;;;23.90;15.68;;;5.90;99.90;;;;;;5103756;28;20055;-64
2022/03/13 04:42:19;;;;;;;30.25;14.32;;;5.90;99.90;;;;;;5103863;28;20495;-64
2022/03/13 04:44:45;;;;;;;24.00;15.00;;;5.90;99.90;;;;;;5107796;28;20051;-64
2022/03/13 04:47:11;;;;;;;22.25;15.93;;;5.80;99.90;;;;;;5107596;28;20044;-64
2022/03/13 04:49:36;;;;;;;21.70;14.90;;;5.90;99.90;;;;;;5108078;28;20067;-64
2022/03/13 04:52:02;;;;;;;21.17;14.05;;;5.90;99.90;;;;;;5107160;28;20072;-64
2022/03/13 04:54:28;;;;;;;23.02;15.05;;;5.90;99.90;;;;;;5107449;28;20044;-64
2022/03/13 04:56:54;;;;;;;23.30;14.07;;;5.90;99.90;;;;;;5107628;28;20051;-64
2022/03/13 04:59:20;;;;;;;21.50;15.20;;;5.90;99.90;;;;;;5107785;28;20065;-65
2022/03/13 05:01:45;;;;;;;24.05;15.18;;;5.80;99.90;;;;;;5107650;28;20047;-65
2022/03/13 05:04:11;;;;;;;25.25;15.90;;;5.80;99.90;;;;;;5107233;28;20052;-64
2022/03/13 05:06:39;;;;;;;19.67;14.88;;;5.80;99.90;;;;;;5106962;28;20047;-64
2022/03/13 05:09:05;;;;;;;22.42;14.75;;;5.70;99.90;;;;;;5107330;28;20055;-65
2022/03/13 05:11:31;;;;;;;20.63;15.10;;;5.70;99.90;;;;;;5107270;28;20060;-64
2022/03/13 05:13:57;;;;;;;25.40;14.82;;;5.70;99.90;;;;;;5107501;28;20062;-65
2022/03/13 05:16:22;;;;;;;23.50;15.55;;;5.70;99.90;;;;;;5107312;28;20495;-65
2022/03/13 05:18:48;;;;;;;19.88;14.82;;;5.70;99.90;;;;;;5107098;28;20500;-65
2022/03/13 05:21:14;;;;;;;23.45;14.27;;;5.70;99.90;;;;;;5106534;28;20039;-65
2022/03/13 05:23:40;;;;;;;19.48;14.43;;;5.60;99.90;;;;;;5106884;28;20169;-65
2022/03/13 05:26:05;;;;;;;19.98;14.02;;;5.60;99.90;;;;;;5106938;28;20040;-65
2022/03/13 05:28:31;;;;;;;22.50;14.85;;;5.60;99.90;;;;;;5107258;28;20055;-65
2022/03/13 05:30:57;;;;;;;18.85;13.10;;;5.50;99.90;;;;;;5106924;28;20048;-65
2022/03/13 05:33:23;;;;;;;22.20;14.35;;;5.50;99.90;;;;;;5106896;28;20075;-65
2022/03/13 05:35:48;;;;;;;25.90;15.80;;;5.50;99.90;;;;;;5105370;28;20032;-65
2022/03/13 05:38:14;;;;;;;21.73;14.32;;;5.50;99.90;;;;;;5105964;28;20127;-65
2022/03/13 05:40:41;;;;;;;21.38;15.38;;;5.50;99.90;;;;;;5106275;28;20048;-65
2022/03/13 05:43:07;;;;;;;23.25;14.00;;;5.40;99.90;;;;;;5106579;28;20074;-65
2022/03/13 05:45:32;;;;;;;20.50;13.65;;;5.40;99.90;;;;;;5106277;28;20036;-64
2022/03/13 05:48:05;;;;;;;22.92;14.60;;;5.40;99.90;;;;;;5106356;28;20047;-64
2022/03/13 05:50:31;;;;;;;23.15;15.07;;;5.40;99.90;;;;;;5106599;28;20086;-64
2022/03/13 05:52:56;;;;;;;20.00;13.35;;;5.30;99.90;;;;;;5106105;28;20051;-64
2022/03/13 05:55:25;;;;;;;20.38;14.25;;;5.40;99.90;;;;;;5105714;28;20044;-64
2022/03/13 05:57:53;;;;;;;22.55;15.13;;;5.40;99.90;;;;;;5106526;28;20528;-65
2022/03/13 06:00:20;;;;;;;25.85;13.65;;;5.40;99.90;;;;;;5106718;28;20484;-65
2022/03/13 06:02:47;;;;;;;21.83;13.63;;;5.40;99.90;;;;;;5105971;28;20045;-65
2022/03/13 06:05:16;;;;;;;19.65;13.43;;;5.40;99.90;;;;;;5106615;28;20056;-65
2022/03/13 06:07:42;;;;;;;20.55;13.68;;;5.40;99.90;;;;;;5106046;28;20059;-65
2022/03/13 06:10:08;;;;;;;20.70;14.55;;;5.40;99.90;;;;;;5106195;28;20470;-65
2022/03/13 06:12:35;;;;;;;19.15;12.73;;;5.40;99.90;;;;;;5106043;28;20055;-65
2022/03/13 06:15:02;;;;;;;22.15;14.52;;;5.50;99.90;;;;;;5106098;28;20169;-65
2022/03/13 06:17:28;;;;;;;19.10;12.35;;;5.50;99.90;;;;;;5106225;28;20047;-65
2022/03/13 06:19:56;;;;;;;21.40;13.50;;;5.50;99.90;;;;;;5106366;28;20059;-64
2022/03/13 06:22:22;;;;;;;17.48;12.70;;;5.50;99.90;;;;;;5105282;28;20052;-64
2022/03/13 06:24:48;;;;;;;18.88;12.77;;;5.50;99.90;;;;;;5105855;28;20036;-64
2022/03/13 06:27:14;;;;;;;19.60;12.93;;;5.50;99.90;;;;;;5105656;28;20561;-65
2022/03/13 06:29:41;;;;;;;19.75;13.02;;;5.50;99.90;;;;;;5105802;28;20104;-64
2022/03/13 06:32:07;;;;;;;19.30;12.52;;;5.50;99.90;;;;;;5105857;28;20055;-64
2022/03/13 06:34:34;;;;;;;20.38;12.82;;;5.50;99.90;;;;;;5105689;28;20096;-64
2022/03/13 06:37:00;;;;;;;22.27;13.88;;;5.50;99.90;;;;;;5105001;28;20103;-64
2022/03/13 06:39:25;;;;;;;19.08;11.82;;;5.50;99.90;;;;;;5105388;28;20040;-64
2022/03/13 06:41:51;;;;;;;20.48;13.13;;;5.50;99.90;;;;;;5105402;28;20068;-64
2022/03/13 06:44:18;;;;;;;22.30;12.77;;;5.50;99.90;;;;;;5105673;28;20047;-64
2022/03/13 06:46:45;;;;;;;20.35;12.40;;;5.50;99.90;;;;;;5105351;28;20161;-64
2022/03/13 06:49:11;;;;;;;15.83;11.20;;;5.40;99.90;;;;;;5105540;28;20040;-64
2022/03/13 06:51:40;;;;;;;18.63;12.77;;;5.50;99.90;;;;;;5104801;28;20062;-64
2022/03/13 06:54:07;;;;;;;19.42;12.00;;;5.50;99.90;;;;;;5105223;28;20057;-64
2022/03/13 06:56:35;;;;;;;34.78;14.93;;;5.70;99.90;;;;;;5105299;28;20090;-64
2022/03/13 06:59:03;;;;;;;;;;;5.50;99.90;;;;;;5105767;28;20094;-64
2022/03/13 07:01:33;;;;;;;22.42;12.27;;;5.50;99.90;;;;;;5103822;28;20005;-64
2022/03/13 07:03:59;;;;;;;20.90;12.55;;;5.60;99.90;;;;;;5105041;28;20048;-64
2022/03/13 07:06:24;;;;;;;18.67;12.45;;;5.60;99.90;;;;;;5103626;28;20127;-64
2022/03/13 07:08:50;;;;;;;15.73;11.52;;;5.50;99.90;;;;;;5105006;28;20274;-64
2022/03/13 07:11:16;;;;;;;19.33;11.60;;;5.60;99.90;;;;;;5105502;28;20075;-64
2022/03/13 07:13:45;;;;;;;20.17;12.50;;;5.60;99.90;;;;;;5104975;28;20481;-64
2022/03/13 07:16:14;;;;;;;18.35;12.18;;;5.70;99.90;;;;;;5104977;28;20534;-64
2022/03/13 07:18:39;;;;;;;20.02;12.05;;;5.70;99.90;;;;;;5104999;28;20044;-65
2022/03/13 07:21:05;;;;;;;17.45;11.63;;;5.70;99.90;;;;;;5104435;28;20044;-64
2022/03/13 07:23:32;;;;;;;21.10;11.88;;;5.70;99.90;;;;;;5104624;28;20043;-65
2022/03/13 07:25:58;;;;;;;18.35;12.40;;;5.80;99.90;;;;;;5104506;28;20111;-65
2022/03/13 07:28:23;;;;;;;18.10;12.20;;;5.80;99.90;;;;;;5104813;28;20043;-64
2022/03/13 07:30:49;;;;;;;20.45;12.75;;;5.80;99.90;;;;;;5104699;28;20032;-64
2022/03/13 07:33:15;;;;;;;21.15;11.45;;;5.80;99.90;;;;;;5104627;28;20040;-65
2022/03/13 07:35:40;;;;;;;18.40;12.30;;;5.90;99.90;;;;;;5104800;28;20036;-65
2022/03/13 07:38:06;;;;;;;20.08;11.82;;;5.90;99.90;;;;;;5104666;28;20281;-64
2022/03/13 07:40:32;;;;;;;21.48;13.10;;;5.90;99.90;;;;;;5104368;28;20040;-65
2022/03/13 07:42:58;;;;;;;17.25;12.63;;;6.00;99.90;;;;;;5104398;28;20081;-65
2022/03/13 07:45:25;;;;;;;23.35;12.40;;;6.10;99.90;;;;;;5104180;28;20097;-64
2022/03/13 07:47:54;;;;;;;17.42;12.10;;;6.20;99.90;;;;;;5104384;28;20093;-64
2022/03/13 07:50:21;;;;;;;18.10;11.68;;;6.20;99.80;;;;;;5104779;28;20055;-64
2022/03/13 07:52:47;;;;;;;16.73;10.82;;;6.30;98.80;;;;;;5103670;28;20100;-65
2022/03/13 07:55:14;;;;;;;17.80;11.50;;;6.40;98.10;;;;;;5104300;28;20063;-64
2022/03/13 07:57:40;;;;;;;18.73;12.23;;;6.40;98.00;;;;;;5104296;28;20051;-64
2022/03/13 08:00:10;;;;;;;18.13;11.38;;;6.50;97.40;;;;;;5104476;28;20092;-65
2022/03/13 08:02:36;;;;;;;18.25;10.82;;;6.70;96.30;;;;;;5104378;28;20071;-65
2022/03/13 08:05:02;;;;;;;19.90;11.38;;;6.80;95.00;;;;;;5104297;28;20048;-65
2022/03/13 08:07:28;;;;;;;17.02;11.30;;;7.00;94.70;;;;;;5103926;28;20051;-65
2022/03/13 08:09:54;;;;;;;22.88;12.15;;;7.00;94.00;;;;;;5104104;28;20097;-65
2022/03/13 08:12:20;;;;;;;17.20;10.27;;;7.10;93.60;;;;;;5103811;28;20071;-65
2022/03/13 08:14:46;;;;;;;17.45;10.88;;;7.10;93.20;;;;;;5104552;28;20066;-65
2022/03/13 08:17:12;;;;;;;16.05;10.48;;;7.30;93.20;;;;;;5104143;28;20048;-64
2022/03/13 08:19:37;;;;;;;16.40;11.40;;;7.40;91.70;;;;;;5090039;28;20048;-64
2022/03/13 08:22:04;;;;;;;19.58;11.73;;;7.50;92.00;;;;;;5107536;28;20108;-64
2022/03/13 08:24:29;;;;;;;16.98;10.93;;;7.60;90.90;;;;;;5108032;28;20043;-64
2022/03/13 08:26:55;;;;;;;16.58;10.50;;;7.70;89.30;;;;;;5108388;28;20051;-65
2022/03/13 08:29:21;;;;;;;14.65;10.30;;;7.90;87.40;;;;;;5108239;28;20083;-65
2022/03/13 08:31:46;;;;;;;15.05;10.65;;;8.00;86.00;;;;;;5107874;28;20040;-65
2022/03/13 08:34:12;;;;;;;15.57;9.65;;;8.20;85.80;;;;;;5108033;28;20199;-65
2022/03/13 08:36:40;;;;;;;16.33;11.05;;;8.30;84.00;;;;;;5107482;28;20044;-65
2022/03/13 08:39:06;;;;;;;22.05;10.57;;;8.40;83.80;;;;;;5107726;28;20123;-64
2022/03/13 08:41:32;;;;;;;18.00;10.65;;;8.40;80.50;;;;;;5108105;28;20051;-65
2022/03/13 08:43:58;;;;;;;12.55;9.65;;;8.60;81.40;;;;;;5107777;28;20040;-65
2022/03/13 08:46:23;;;;;;;15.38;9.68;;;8.60;77.20;;;;;;5107758;28;20139;-65
2022/03/13 08:48:49;;;;;;;18.67;9.75;;;8.80;76.30;;;;;;5107823;28;20100;-65
2022/03/13 08:51:18;;;;;;;16.50;9.40;;;8.90;76.10;;;;;;5107170;28;20044;-65
2022/03/13 08:53:44;;;;;;;16.60;10.18;;;9.10;72.00;;;;;;5107899;28;20044;-65
2022/03/13 08:56:13;;;;;;;17.83;10.35;;;9.30;71.90;;;;;;5107659;28;20054;-65
2022/03/13 08:58:42;;;;;;;14.00;10.32;;;9.40;69.20;;;;;;5107687;28;20044;-65
2022/03/13 09:01:11;;;;;;;15.93;10.25;;;9.60;69.10;;;;;;5107487;28;20153;-65
2022/03/13 09:03:36;;;;;;;13.57;9.48;;;9.60;66.30;;;;;;5107565;28;20051;-65
2022/03/13 09:06:03;;;;;;;15.65;10.45;;;9.70;66.70;;;;;;5107278;28;20040;-65
2022/03/13 09:08:29;;;;;;;15.88;10.07;;;9.70;65.80;;;;;;5107440;28;20040;-65
2022/03/13 09:10:55;;;;;;;16.90;9.13;;;9.70;65.10;;;;;;5106903;28;20054;-64
2022/03/13 09:13:21;;;;;;;16.50;10.38;;;9.70;65.60;;;;;;5107349;28;20048;-64
2022/03/13 09:15:50;;;;;;;16.25;10.32;;;9.50;64.00;;;;;;5107130;28;20042;-64
2022/03/13 09:18:16;;;;;;;14.68;9.75;;;9.60;64.20;;;;;;5107322;28;20075;-64
2022/03/13 09:20:42;;;;;;;13.77;9.60;;;9.60;63.80;;;;;;5107286;28;20061;-65
2022/03/13 09:23:08;;;;;;;13.65;9.82;;;9.70;64.50;;;;;;5106179;28;20139;-65
2022/03/13 09:25:34;;;;;;;17.50;10.00;;;9.60;64.00;;;;;;5106638;28;20044;-65
2022/03/13 09:28:01;;;;;;;18.05;10.23;;;9.70;63.40;;;;;;5105778;28;20052;-64
2022/03/13 09:30:26;;;;;;;16.83;10.63;;;9.90;64.10;;;;;;5105988;28;20044;-65
2022/03/13 09:32:52;;;;;;;14.85;9.98;;;10.20;61.10;;;;;;5107040;28;20040;-65
2022/03/13 09:35:18;;;;;;;17.48;9.32;;;10.40;61.40;;;;;;5106862;28;20042;-65
2022/03/13 09:37:44;;;;;;;14.48;9.90;;;10.60;60.40;;;;;;5106409;28;20062;-65
2022/03/13 09:40:12;;;;;;;14.32;9.82;;;10.80;58.60;;;;;;5106282;28;20055;-65
2022/03/13 09:42:38;;;;;;;15.10;9.27;;;11.00;57.70;;;;;;5106772;28;20051;-64
2022/03/13 09:45:05;;;;;;;15.50;10.20;;;11.10;57.30;;;;;;5107084;28;20044;-64
2022/03/13 09:47:32;;;;;;;15.95;9.60;;;11.20;56.80;;;;;;5106008;28;20059;-64
2022/03/13 09:49:57;;;;;;;14.45;9.20;;;11.40;56.80;;;;;;5106529;28;20044;-65
2022/03/13 09:52:23;;;;;;;15.60;9.35;;;11.50;55.50;;;;;;5105826;28;20028;-64
2022/03/13 09:54:49;;;;;;;14.63;9.85;;;11.60;55.00;;;;;;5106083;28;20052;-64
2022/03/13 09:57:15;;;;;;;22.23;10.38;;;11.70;54.30;;;;;;5106532;28;20040;-64
2022/03/13 09:59:43;;;;;;;18.08;10.05;;;11.90;54.30;;;;;;5105034;28;20417;-64
2022/03/13 10:02:09;;;;;;;17.95;10.10;;;11.90;55.00;;;;;;5106019;28;20054;-64
2022/03/13 10:04:35;;;;;;;14.95;9.48;;;12.10;54.50;;;;;;5106155;28;20099;-64
2022/03/13 10:07:01;;;;;;;15.95;9.77;;;12.10;52.70;;;;;;5105731;28;20047;-65
2022/03/13 10:09:29;;;;;;;13.75;10.13;;;12.20;52.50;;;;;;5106052;28;20144;-64
2022/03/13 10:12:05;;;;;;;14.90;9.95;;;12.30;53.30;;;;;;5104493;28;20123;-66
2022/03/13 10:14:31;;;;;;;15.10;10.27;;;12.30;51.70;;;;;;5106074;28;20044;-64
2022/03/13 10:16:57;;;;;;;14.27;10.38;;;12.40;52.20;;;;;;5105838;28;20066;-64
2022/03/13 10:19:25;;;;;;;13.93;9.52;;;12.60;51.70;;;;;;5106041;28;20040;-64
2022/03/13 10:22:07;;;;;;;16.40;11.07;;;12.60;51.20;;;;;;5105152;28;20103;-64
2022/03/13 10:24:41;;;;;;;15.13;10.40;;;12.80;52.40;;;;;;5105754;28;20055;-65
2022/03/13 10:27:14;;;;;;;15.23;9.48;;;12.80;51.70;;;;;;5105960;28;20431;-64
2022/03/13 10:29:42;;;;;;;15.80;10.02;;;12.90;51.00;;;;;;5105839;28;20062;-64
2022/03/13 10:32:11;;;;;;;13.45;10.00;;;12.80;50.40;;;;;;5104410;28;20054;-64
2022/03/13 10:34:37;;;;;;;15.80;9.98;;;12.90;50.50;;;;;;5105664;28;20040;-64
2022/03/13 10:37:04;;;;;;;15.43;9.95;;;12.90;50.90;;;;;;5105013;28;20054;-64
2022/03/13 10:39:31;;;;;;;16.15;10.77;;;13.10;51.50;;;;;;5105511;28;20040;-64
2022/03/13 10:42:02;;;;;;;15.65;10.23;;;13.30;51.60;;;;;;5105339;28;20040;-64
2022/03/13 10:44:44;;;;;;;17.80;9.82;;;13.40;50.50;;;;;;5105530;28;20125;-64
2022/03/13 10:47:11;;;;;;;15.57;11.15;;;13.40;49.30;;;;;;5105084;28;20052;-64
2022/03/13 10:49:41;;;;;;;16.13;10.25;;;13.40;49.40;;;;;;5105353;28;20454;-64
2022/03/13 10:52:29;;;;;;;13.43;10.10;;;13.40;48.20;;;;;;5103374;28;20263;-64
2022/03/13 10:55:18;;;;;;;15.23;9.33;;;13.50;48.00;;;;;;5105164;28;20052;-64
2022/03/13 10:57:54;;;;;;;15.05;10.85;;;13.70;48.50;;;;;;5105324;28;20134;-64
2022/03/13 11:00:22;;;;;;;14.82;9.93;;;13.80;47.70;;;;;;5105330;28;20040;-64
2022/03/13 11:02:49;;;;;;;11.95;9.75;;;13.90;47.40;;;;;;5104889;28;20044;-64
2022/03/13 11:05:15;;;;;;;14.23;9.97;;;14.10;48.70;;;;;;5105228;28;20055;-64
2022/03/13 11:07:41;;;;;;;14.48;10.95;;;14.20;48.50;;;;;;5104335;28;20040;-65
2022/03/13 11:10:08;;;;;;;14.25;10.55;;;14.30;48.40;;;;;;5104529;28;20079;-63
2022/03/13 11:12:35;;;;;;;21.25;10.73;;;14.50;48.80;;;;;;5105187;28;20044;-64
2022/03/13 11:15:01;;;;;;;14.57;10.40;;;14.60;47.80;;;;;;5104835;28;20051;-64
2022/03/13 11:17:30;;;;;;;15.50;10.68;;;14.70;47.70;;;;;;5104996;28;20107;-64
2022/03/13 11:19:58;;;;;;;16.27;10.80;;;14.90;47.80;;;;;;5105017;28;20047;-65
2022/03/13 11:22:24;;;;;;;16.13;10.00;;;15.20;46.90;;;;;;5103783;28;20099;-64
2022/03/13 11:24:54;;;;;;;16.33;9.40;;;15.00;51.60;;;;;;5104855;28;20095;-64
2022/03/13 11:27:21;;;;;;;18.02;10.95;;;15.20;50.60;;;;;;5104620;28;20044;-64
2022/03/13 11:29:48;;;;;;;15.23;11.25;;;15.50;49.30;;;;;;5104824;28;20158;-63
2022/03/13 11:32:34;;;;;;;19.73;10.43;;;15.50;46.10;;;;;;5103388;28;20039;-64
2022/03/13 11:35:14;;;;;;;15.02;10.40;;;;;;;;;;5104588;28;20048;-63
2022/03/13 11:37:41;;;;;;;16.90;11.10;;;15.60;44.20;;;;;;5104028;28;20067;-66
2022/03/13 11:40:09;;;;;;;17.40;10.65;;;15.70;44.90;;;;;;5104229;28;20046;-66
2022/03/13 11:42:50;;;;;;;15.88;10.65;;;15.60;44.90;;;;;;5104459;28;20511;-66
2022/03/13 11:45:29;;;;;;;16.40;10.52;;;15.90;44.70;;;;;;5104452;28;20457;-65
2022/03/13 11:48:18;;;;;;;13.52;10.35;;;15.90;44.00;;;;;;5104079;28;20060;-64
2022/03/13 11:50:52;;;;;;;15.63;9.77;;;16.00;43.60;;;;;;5102799;28;20048;-64
2022/03/13 11:53:25;;;;;;;14.48;10.32;;;16.50;45.40;;;;;;5103627;28;20043;-63
2022/03/13 11:56:00;;;;;;;13.35;9.77;;;17.20;43.40;;;;;;5103642;28;20047;-65
2022/03/13 11:58:42;;;;;;;14.77;10.30;;;17.60;42.80;;;;;;5104216;28;20073;-66
2022/03/13 12:01:15;;;;;;;14.18;10.43;;;18.10;42.80;;;;;;5104201;28;20102;-66
2022/03/13 12:04:00;;;;;;;14.40;9.55;;;17.70;40.20;;;;;;5104351;28;20474;-66
2022/03/13 12:06:48;;;;;;;16.02;10.25;;;17.90;40.10;;;;;;5103407;28;20047;-66
2022/03/13 12:09:19;;;;;;;15.40;9.95;;;17.70;40.20;;;;;;5103786;28;20040;-66
2022/03/13 12:11:58;;;;;;;16.65;8.05;;;17.70;40.60;;;;;;5103990;28;20051;-65
2022/03/13 12:14:57;;;;;;;11.02;7.65;;;17.50;39.40;;;;;;5104100;28;20048;-64
2022/03/13 12:17:25;;;;;;;14.65;8.85;;;17.10;40.00;;;;;;5103789;28;20044;-66
2022/03/13 12:19:56;;;;;;;13.85;8.82;;;17.60;41.30;;;;;;5103872;28;20451;-65
2022/03/13 12:22:24;;;;;;;13.63;9.02;;;17.30;40.90;;;;;;5102961;28;20048;-66
2022/03/13 12:24:53;;;;;;;13.50;9.48;;;17.50;41.20;;;;;;5103761;28;20044;-66
2022/03/13 12:27:19;;;;;;;11.52;9.27;;;17.50;42.30;;;;;;5103647;28;20052;-66
2022/03/13 12:29:58;;;;;;;11.85;9.82;;;17.30;42.20;;;;;;5103985;28;20055;-66
2022/03/13 12:32:28;;;;;;;12.98;9.38;;;17.40;41.60;;;;;;5103678;28;20047;-65
2022/03/13 12:34:55;;;;;;;11.98;9.38;;;17.10;41.70;;;;;;5103837;28;20411;-67
2022/03/13 12:37:21;;;;;;;13.77;10.02;;;17.20;40.80;;;;;;5102033;28;20063;-66
2022/03/13 12:39:48;;;;;;;11.30;9.15;;;17.10;40.90;;;;;;5103534;28;20036;-66
2022/03/13 12:42:21;;;;;;;10.73;8.55;;;17.10;41.00;;;;;;5103439;28;20512;-65